createdAt,value
2022-10-09T00:05:32.809Z,5.5
2022-10-09T00:11:09.638Z,5.4
2022-10-09T00:16:47.889Z,5.4
2022-10-09T00:22:24.454Z,5.3
2022-10-09T00:28:01.963Z,5.3
2022-10-09T00:33:28.237Z,5.3
2022-10-09T00:39:04.444Z,5.1
2022-10-09T00:44:25.667Z,5.1
2022-10-09T00:50:04.330Z,5.1
2022-10-09T00:55:42.143Z,5
2022-10-09T01:01:19.399Z,4.9
2022-10-09T01:06:57.799Z,4.9
2022-10-09T01:12:34.520Z,4.8
2022-10-09T01:18:11.637Z,4.8
2022-10-09T01:23:49.968Z,4.8
2022-10-09T01:29:10.903Z,4.7
2022-10-09T01:34:47.635Z,4.6
2022-10-09T01:40:10.230Z,4.6
2022-10-09T01:45:47.445Z,4.6
2022-10-09T01:51:09.105Z,4.6
2022-10-09T01:56:32.102Z,4.6
2022-10-09T02:02:09.081Z,4.6
2022-10-09T02:07:30.176Z,4.6
2022-10-09T02:13:08.281Z,4.6
2022-10-09T02:18:30.721Z,4.6
2022-10-09T02:24:11.957Z,4.6
2022-10-09T02:29:55.928Z,4.6
2022-10-09T02:35:32.585Z,4.6
2022-10-09T02:41:07.805Z,4.6
2022-10-09T02:46:45.652Z,4.5
2022-10-09T02:52:21.980Z,4.6
2022-10-09T02:57:46.682Z,4.5
2022-10-09T03:03:26.225Z,4.5
2022-10-09T03:08:47.474Z,4.4
2022-10-09T03:14:08.457Z,4.4
2022-10-09T03:19:15.428Z,4.4
2022-10-09T03:24:37.457Z,4.4
2022-10-09T03:29:58.281Z,4.3
2022-10-09T03:35:34.323Z,4.3
2022-10-09T03:40:55.613Z,4.3
2022-10-09T03:45:46.075Z,4.2
2022-10-09T03:50:53.052Z,4.2
2022-10-09T03:56:14.165Z,4.1
2022-10-09T04:01:21.064Z,4.1
2022-10-09T04:06:43.722Z,4
2022-10-09T04:12:04.493Z,3.9
2022-10-09T04:17:25.551Z,3.9
2022-10-09T04:22:48.297Z,3.9
2022-10-09T04:27:54.136Z,3.8
2022-10-09T04:33:16.892Z,3.8
2022-10-09T04:38:23.381Z,3.8
2022-10-09T04:43:45.176Z,3.7
2022-10-09T04:49:09.265Z,3.7
2022-10-09T04:54:36.465Z,3.7
2022-10-09T04:59:58.024Z,3.6
2022-10-09T05:05:36.815Z,3.6
2022-10-09T05:11:14.385Z,3.8
2022-10-09T05:17:20.748Z,3.8
2022-10-09T05:23:00.299Z,3.9
2022-10-09T05:28:25.727Z,4.1
2022-10-09T05:34:07.315Z,4.4
2022-10-09T05:39:45.011Z,4.9
2022-10-09T05:45:23.821Z,5.7
2022-10-09T05:51:00.957Z,6.8
2022-10-09T05:56:41.774Z,8.2
2022-10-09T06:02:20.564Z,9.9
2022-10-09T06:07:57.897Z,11.8
2022-10-09T06:13:40.746Z,14.1
2022-10-09T06:19:22.435Z,16.6
2022-10-09T06:25:05.172Z,28.9
2022-10-09T06:30:43.152Z,29
2022-10-09T06:36:26.856Z,27.9
2022-10-09T06:42:03.719Z,28.3
2022-10-09T06:47:41.702Z,36.1
2022-10-09T06:53:19.924Z,36
2022-10-09T06:58:57.241Z,35.8
2022-10-09T07:04:36.238Z,33.5
2022-10-09T07:10:13.767Z,33.5
2022-10-09T07:15:51.731Z,34.2
2022-10-09T07:21:29.403Z,35.3
2022-10-09T07:27:11.085Z,36.4
2022-10-09T07:32:49.805Z,37.4
2022-10-09T07:38:27.177Z,38.4
2022-10-09T07:44:05.114Z,39.3
2022-10-09T07:49:42.750Z,40.3
2022-10-09T07:55:20.129Z,41.1
2022-10-09T08:00:43.122Z,42.4
2022-10-09T08:06:24.452Z,43.9
2022-10-09T08:12:05.836Z,45.3
2022-10-09T08:17:45.017Z,46.4
2022-10-09T08:23:21.809Z,47.9
2022-10-09T08:28:59.559Z,48.5
2022-10-09T08:34:42.035Z,48.5
2022-10-09T08:40:45.810Z,49.2
2022-10-09T08:46:07.837Z,49.9
2022-10-09T08:51:30.623Z,51.2
2022-10-09T08:56:52.335Z,52.3
2022-10-09T09:02:30.129Z,53.4
2022-10-09T09:08:09.212Z,54.3
2022-10-09T09:13:31.729Z,55.2
2022-10-09T09:19:08.672Z,55.9
2022-10-09T09:24:31.590Z,56.1
2022-10-09T09:29:56.716Z,56.8
2022-10-09T09:35:22.196Z,57.5
2022-10-09T09:42:04.144Z,58.4
2022-10-09T09:53:28.673Z,59.8
2022-10-09T10:04:07.963Z,61.1
2022-10-09T10:09:31.378Z,61.7
2022-10-09T10:14:57.532Z,62.3
2022-10-09T10:20:25.403Z,62.9
2022-10-09T10:25:50.518Z,63.4
2022-10-09T10:31:13.774Z,63.8
2022-10-09T10:36:35.619Z,64.2
2022-10-09T10:42:13.127Z,64.8
2022-10-09T10:47:35.787Z,65.3
2022-10-09T10:52:59.304Z,65.8
2022-10-09T10:58:39.653Z,66.3
2022-10-09T11:09:30.786Z,67.2
2022-10-09T11:15:14.768Z,67.5
2022-10-09T11:20:40.158Z,67.9
2022-10-09T11:25:47.328Z,68.3
2022-10-09T11:31:09.462Z,68.6
2022-10-09T11:36:47.666Z,69
2022-10-09T11:42:17.506Z,69.3
2022-10-09T11:47:26.431Z,69.6
2022-10-09T11:52:49.225Z,69.8
2022-10-09T11:58:10.801Z,70.1
2022-10-09T12:03:32.908Z,70.3
2022-10-09T12:09:14.218Z,70.5
2022-10-09T12:14:36.900Z,70.6
2022-10-09T12:20:17.619Z,70.8
2022-10-09T12:26:04.800Z,70.8
2022-10-09T12:31:42.444Z,70.9
2022-10-09T12:37:19.846Z,70.9
2022-10-09T12:43:04.264Z,70.9
2022-10-09T12:48:41.424Z,70.8
2022-10-09T12:54:19.868Z,70.8
2022-10-09T12:59:59.690Z,70.7
2022-10-09T13:05:38.217Z,70.6
2022-10-09T13:11:15.816Z,70.4
2022-10-09T13:16:53.460Z,70.1
2022-10-09T13:22:33.627Z,69.9
2022-10-09T13:28:12.873Z,69.6
2022-10-09T13:33:51.316Z,69.1
2022-10-09T13:39:30.122Z,68.7
2022-10-09T13:45:07.527Z,68.3
2022-10-09T13:50:49.080Z,67.7
2022-10-09T13:56:27.867Z,67.2
2022-10-09T14:02:06.949Z,66.5
2022-10-09T14:07:45.079Z,65.9
2022-10-09T14:13:22.335Z,65.2
2022-10-09T14:19:00.173Z,64.3
2022-10-09T14:24:40.482Z,63.5
2022-10-09T14:30:18.716Z,62.7
2022-10-09T14:35:59.847Z,61.9
2022-10-09T14:41:56.422Z,60.9
2022-10-09T14:52:55.960Z,54
2022-10-09T14:58:33.417Z,50.4
2022-10-09T15:04:11.441Z,47.6
2022-10-09T15:09:49.560Z,45
2022-10-09T15:15:31.777Z,42.8
2022-10-09T15:21:09.423Z,40.6
2022-10-09T15:26:47.027Z,38.6
2022-10-09T15:32:26.432Z,36.7
2022-10-09T15:38:09.011Z,34.9
2022-10-09T15:43:47.401Z,33.2
2022-10-09T15:49:53.475Z,31.6
2022-10-09T15:55:14.159Z,30.3
2022-10-09T16:00:54.613Z,29
2022-10-09T16:06:33.547Z,27.9
2022-10-09T16:12:20.103Z,26.8
2022-10-09T16:18:00.866Z,25.8
2022-10-09T16:23:23.473Z,24.9
2022-10-09T16:29:02.868Z,24.1
2022-10-09T16:34:24.648Z,23.4
2022-10-09T16:39:47.192Z,22.7
2022-10-09T16:45:55.403Z,22
2022-10-09T16:51:22.656Z,21.4
2022-10-09T16:56:45.123Z,20.9
2022-10-09T17:02:08.191Z,20.4
2022-10-09T17:07:45.543Z,20
2022-10-09T17:13:28.853Z,19.4
2022-10-09T17:18:52.601Z,18.8
2022-10-09T17:24:30.626Z,18.3
2022-10-09T17:29:53.805Z,17.8
2022-10-09T17:35:37.305Z,17.3
2022-10-09T17:41:19.628Z,16.9
2022-10-09T17:46:46.909Z,16.6
2022-10-09T17:51:53.783Z,16.4
2022-10-09T17:57:19.959Z,16.1
2022-10-09T18:02:43.126Z,15.9
2022-10-09T18:08:20.944Z,15.6
2022-10-09T18:13:27.013Z,15.4
2022-10-09T18:18:54.738Z,15.2
2022-10-09T18:24:17.302Z,15
2022-10-09T18:29:59.403Z,14.8
2022-10-09T18:35:24.756Z,14.6
2022-10-09T18:41:02.291Z,14.5
2022-10-09T18:46:39.611Z,14.3
2022-10-09T18:52:18.038Z,14.1
2022-10-09T18:57:58.786Z,13.9
2022-10-09T19:03:43.550Z,13.8
2022-10-09T19:09:22.844Z,13.6
2022-10-09T19:15:01.881Z,13.5
2022-10-09T19:20:39.472Z,13.3
2022-10-09T19:26:21.494Z,13.2
2022-10-09T19:31:58.866Z,13
2022-10-09T19:37:44.024Z,12.9
2022-10-09T19:43:22.257Z,12.8
2022-10-09T19:48:48.598Z,12.6
2022-10-09T19:54:24.981Z,12.4
2022-10-09T19:59:47.169Z,12.3
2022-10-09T20:05:24.517Z,12.1
2022-10-09T20:10:50.446Z,11.9
2022-10-09T20:16:30.785Z,11.8
2022-10-09T20:21:53.397Z,11.6
2022-10-09T20:27:20.320Z,11.4
2022-10-09T20:32:59.229Z,11.3
2022-10-09T20:38:25.503Z,11.2
2022-10-09T20:44:03.334Z,11.1
2022-10-09T20:49:25.304Z,10.9
2022-10-09T20:55:02.882Z,10.9
2022-10-09T21:00:29.261Z,10.8
2022-10-09T21:11:00.802Z,10.5
2022-10-09T21:22:06.567Z,10.4
2022-10-09T21:27:43.388Z,10.3
2022-10-09T21:33:11.124Z,10.2
2022-10-09T21:39:10.276Z,10.1
2022-10-09T21:44:47.997Z,10.1
2022-10-09T21:50:24.462Z,10
2022-10-09T21:56:02.486Z,10
2022-10-09T22:01:26.120Z,9.9
2022-10-09T22:07:03.652Z,9.9
2022-10-09T22:12:42.695Z,9.9
2022-10-09T22:18:08.376Z,9.8
2022-10-09T22:23:46.182Z,9.8
2022-10-09T22:29:24.557Z,9.8
2022-10-09T22:35:02.052Z,9.7
2022-10-09T22:40:38.543Z,9.7
2022-10-09T22:46:16.180Z,9.7
2022-10-09T22:51:36.650Z,9.7
2022-10-09T22:56:58.471Z,9.7
2022-10-09T23:02:35.706Z,9.6
2022-10-09T23:08:13.393Z,9.6
2022-10-09T23:13:34.935Z,9.6
2022-10-09T23:18:58.009Z,9.5
2022-10-09T23:24:20.441Z,9.5
2022-10-09T23:29:57.569Z,9.4
2022-10-09T23:35:35.377Z,9.4
2022-10-09T23:41:11.379Z,9.3
2022-10-09T23:46:38.514Z,9.2
2022-10-09T23:52:16.209Z,9.1
2022-10-09T23:57:38.099Z,8.9
